Time;durP1;ratioP1;P1;durP2;ratioP2;P2;SDS_P1;SDS_P2;PMS_P1;PMS_P2;Temp;Humidity;BMP_temperature;BMP_pressure;BME280_temperature;BME280_humidity;BME280_pressure;Samples;Min_cycle;Max_cycle;Signal;HPM_P1;HPM_P2
2022/10/08 00:00:48;;;;;;;3.50;2.05;;;;;;;11.68;81.07;101561.00;4974044;28;20442;-85
2022/10/08 00:03:16;;;;;;;8.10;2.45;;;;;;;11.67;81.38;101555.81;4973386;28;20479;-84
2022/10/08 00:05:41;;;;;;;4.75;2.22;;;;;;;11.63;81.41;101557.59;4974060;28;20384;-85
2022/10/08 00:08:08;;;;;;;4.93;2.20;;;;;;;11.64;81.08;101551.53;4973215;28;20029;-84
2022/10/08 00:10:33;;;;;;;3.00;1.88;;;;;;;11.64;81.12;101555.84;4974064;28;20030;-85
2022/10/08 00:13:00;;;;;;;4.60;2.27;;;;;;;11.62;81.40;101547.19;4973453;28;20383;-85
2022/10/08 00:15:26;;;;;;;7.18;2.40;;;;;;;11.58;81.53;101549.84;4971926;28;20034;-85
2022/10/08 00:17:51;;;;;;;5.40;1.90;;;;;;;11.59;81.45;101548.97;4973441;28;20121;-85
2022/10/08 00:20:17;;;;;;;2.90;1.70;;;;;;;11.61;81.21;101555.84;4973683;28;20118;-85
2022/10/08 00:22:43;;;;;;;7.87;2.30;;;;;;;11.62;81.89;101553.28;4972887;28;20065;-86
2022/10/08 00:25:09;;;;;;;5.20;2.53;;;;;;;11.65;81.56;101557.56;4973567;28;20054;-86
2022/10/08 00:27:37;;;;;;;6.85;2.35;;;;;;;11.65;81.60;101549.78;4973953;28;20448;-85
2022/10/08 00:30:03;;;;;;;5.70;2.25;;;;;;;11.68;81.44;101554.97;4972792;28;20027;-85
2022/10/08 00:32:29;;;;;;;5.18;2.08;;;;;;;11.67;82.15;101550.63;4974027;28;20383;-84
2022/10/08 00:34:54;;;;;;;4.63;2.30;;;;;;;11.68;81.48;101553.19;4973526;28;20019;-84
2022/10/08 00:37:20;;;;;;;5.33;2.20;;;;;;;11.70;81.72;101550.59;4973254;28;20034;-84
2022/10/08 00:39:45;;;;;;;4.67;2.10;;;;;;;11.70;81.92;101548.00;4973656;28;20027;-84
2022/10/08 00:42:11;;;;;;;3.93;1.97;;;;;;;11.71;82.47;101549.69;4973663;28;20027;-85
2022/10/08 00:44:46;;;;;;;5.75;1.95;;;;;;;11.72;82.27;101554.91;4972915;28;20038;-85
2022/10/08 00:47:32;;;;;;;4.50;2.17;;;;;;;11.74;82.63;101554.88;4973450;28;20035;-85
2022/10/08 00:50:13;;;;;;;8.93;2.80;;;;;;;11.77;82.57;101560.06;4973262;28;20122;-86
2022/10/08 00:52:49;;;;;;;5.07;2.35;;;;;;;11.79;82.23;101560.94;4972740;28;20137;-85
2022/10/08 00:55:18;;;;;;;4.90;2.20;;;;;;;11.80;82.61;101565.25;4974009;28;20054;-86
2022/10/08 00:57:44;;;;;;;8.05;2.47;;;;;;;11.83;82.82;101572.16;4972996;28;20026;-86
2022/10/08 01:00:14;;;;;;;5.47;2.40;;;;;;;11.85;82.51;101575.63;4973027;28;20499;-85
2022/10/08 01:02:39;;;;;;;3.15;1.98;;;;;;;11.86;82.18;101577.34;4973625;28;20035;-84
2022/10/08 01:05:06;;;;;;;4.27;2.03;;;;;;;11.86;82.97;101573.00;4972493;28;20050;-84
2022/10/08 01:07:43;;;;;;;5.30;2.00;;;;;;;11.86;82.70;101575.59;4973398;28;20504;-85
2022/10/08 01:10:19;;;;;;;3.13;1.88;;;;;;;11.86;83.01;101583.38;4973484;28;20137;-84
2022/10/08 01:12:55;;;;;;;2.38;1.70;;;;;;;11.87;82.44;101577.31;4972814;28;20031;-85
2022/10/08 01:15:43;;;;;;;2.38;1.60;;;;;;;11.88;82.68;101588.56;4973422;28;20027;-85
2022/10/08 01:18:52;;;;;;;5.60;2.15;;;;;;;11.87;83.47;101598.13;4972610;28;20031;-84
2022/10/08 01:21:39;;;;;;;5.22;1.80;;;;;;;11.86;84.26;101588.59;4951953;28;20035;-85
2022/10/08 01:27:49;;;;;;;6.53;2.30;;;;;;;11.74;86.37;101591.28;4973280;28;20516;-84
2022/10/08 01:30:17;;;;;;;3.83;2.10;;;;;;;11.68;85.70;101592.22;4975637;28;20069;-85
2022/10/08 01:32:52;;;;;;;3.17;1.70;;;;;;;11.65;86.27;101579.22;4976473;28;20023;-85
2022/10/08 01:35:32;;;;;;;2.35;1.55;;;;;;;11.62;85.97;101575.78;4976711;28;20167;-84
2022/10/08 01:38:02;;;;;;;3.45;1.98;;;;;;;11.57;87.36;101578.44;4974567;28;20023;-85
2022/10/08 01:40:31;;;;;;;2.95;1.75;;;;;;;11.55;88.75;101590.56;4975583;28;20117;-86
2022/10/08 01:42:59;;;;;;;3.22;2.05;;;;;;;11.52;89.84;101588.84;4976356;28;20027;-85
2022/10/08 01:45:33;;;;;;;2.28;1.70;;;;;;;11.48;88.16;101583.69;4976753;28;20384;-85
2022/10/08 01:48:03;;;;;;;4.65;2.00;;;;;;;11.44;88.99;101581.13;4975550;28;20031;-85
2022/10/08 01:50:43;;;;;;;1.92;1.70;;;;;;;11.42;90.04;101580.28;4976446;28;20033;-85
2022/10/08 01:53:11;;;;;;;2.38;1.83;;;;;;;11.39;87.75;101593.28;4976179;28;20515;-85
2022/10/08 01:55:46;;;;;;;1.67;1.27;;;;;;;11.38;88.86;101593.28;4975920;28;20022;-86
2022/10/08 01:58:17;;;;;;;4.68;1.80;;;;;;;11.36;90.24;101597.66;4976260;28;20035;-85
2022/10/08 02:00:44;;;;;;;1.83;1.60;;;;;;;11.34;89.48;101591.59;4975299;28;20078;-85
2022/10/08 02:03:12;;;;;;;1.48;1.38;;;;;;;11.33;88.57;101605.47;4976051;28;20035;-85
2022/10/08 02:05:44;;;;;;;2.35;1.70;;;;;;;11.31;89.22;101602.88;4976487;28;20030;-86
2022/10/08 02:08:10;;;;;;;1.30;1.20;;;;;;;11.31;90.21;101596.81;4975558;28;20038;-86
2022/10/08 02:10:35;;;;;;;1.53;1.43;;;;;;;11.27;89.82;101607.22;4976263;28;20378;-85
2022/10/08 02:13:01;;;;;;;2.63;1.50;;;;;;;11.24;89.53;101607.25;4976008;28;20031;-87
2022/10/08 02:15:42;;;;;;;2.00;1.40;;;;;;;11.24;89.06;101607.25;4975347;28;20035;-87
2022/10/08 02:18:19;;;;;;;2.15;1.40;;;;;;;11.24;89.17;101604.66;4975829;28;20344;-86
2022/10/08 02:20:58;;;;;;;2.55;1.58;;;;;;;11.21;89.57;101594.28;4976189;28;20039;-87
2022/10/08 02:23:36;;;;;;;3.30;1.60;;;;;;;11.19;89.11;101592.56;4975466;28;20488;-87
2022/10/08 02:26:07;;;;;;;3.08;1.45;;;;;;;11.16;89.34;101592.56;4975817;28;20023;-87
2022/10/08 02:28:48;;;;;;;2.25;1.58;;;;;;;11.16;89.76;101606.41;4976067;28;20027;-87
2022/10/08 02:31:34;;;;;;;4.32;1.73;;;;;;;11.12;89.91;101596.94;4975650;28;20035;-87
2022/10/08 02:33:59;;;;;;;;;;;;;;;11.12;89.78;101602.97;4976286;28;20037;-87
2022/10/08 02:36:33;;;;;;;4.40;1.67;;;;;;;11.09;91.07;101607.31;4975426;28;19992;-88
2022/10/08 02:39:02;;;;;;;3.03;1.80;;;;;;;11.08;89.52;101601.28;4974605;28;20109;-87
2022/10/08 02:41:33;;;;;;;2.90;1.40;;;;;;;11.04;90.01;101599.56;4976040;28;20035;-88
2022/10/08 02:44:05;;;;;;;1.98;1.30;;;;;;;11.03;89.28;101603.03;4975150;28;20042;-87
2022/10/08 02:46:36;;;;;;;1.50;1.40;;;;;;;11.01;90.41;101604.75;4976079;28;20103;-88
2022/10/08 02:49:09;;;;;;;1.60;1.30;;;;;;;11.02;89.71;101611.69;4975665;28;20105;-87
2022/10/08 02:51:39;;;;;;;1.75;1.20;;;;;;;11.01;90.28;101603.91;4975467;28;20039;-88
2022/10/08 02:54:07;;;;;;;3.67;1.30;;;;;;;10.99;89.50;101606.50;4975293;28;20464;-88
2022/10/08 02:56:47;;;;;;;2.92;1.15;;;;;;;10.96;90.70;101603.94;4975577;28;20085;-88
2022/10/08 02:59:16;;;;;;;1.00;1.00;;;;;;;10.94;90.09;101592.69;4974810;28;20070;-88
2022/10/08 03:01:46;;;;;;;2.70;1.30;;;;;;;10.90;91.74;101596.16;4975381;28;20113;-88
2022/10/08 03:04:18;;;;;;;1.45;1.10;;;;;;;10.87;90.69;101596.16;4974793;28;20586;-88
2022/10/08 03:06:45;;;;;;;1.13;1.02;;;;;;;10.84;90.42;101591.84;4975892;28;20023;-88
2022/10/08 03:09:13;;;;;;;1.70;1.13;;;;;;;10.80;90.98;101596.19;4975316;28;20031;-88
2022/10/08 03:11:39;;;;;;;1.02;0.90;;;;;;;10.81;90.27;101604.84;4974974;28;20487;-87
2022/10/08 03:14:08;;;;;;;1.00;0.80;;;;;;;10.83;89.94;101600.50;4975473;28;20037;-88
2022/10/08 03:16:39;;;;;;;0.65;0.65;;;;;;;10.82;89.77;101604.84;4975781;28;20086;-88
2022/10/08 03:19:06;;;;;;;2.03;1.13;;;;;;;10.80;91.20;101608.34;4974869;28;20053;-88
2022/10/08 03:21:32;;;;;;;2.35;1.02;;;;;;;10.79;90.81;101614.41;4975177;28;20022;-88
2022/10/08 03:23:57;;;;;;;1.20;0.83;;;;;;;10.82;90.24;101611.75;4974919;28;20034;-88
2022/10/08 03:26:23;;;;;;;1.77;0.80;;;;;;;10.79;90.22;101611.78;4974643;28;20070;-88
2022/10/08 03:28:51;;;;;;;0.63;0.63;;;;;;;10.79;90.03;101611.78;4975100;28;20060;-87
2022/10/08 03:31:16;;;;;;;0.80;0.73;;;;;;;10.80;89.36;101616.13;4975140;28;20113;-87
2022/10/08 03:33:42;;;;;;;0.73;0.73;;;;;;;10.80;91.14;101614.38;4974246;28;20154;-88
2022/10/08 03:36:07;;;;;;;2.50;1.20;;;;;;;10.78;91.71;101621.31;4974616;28;20027;-88
2022/10/08 03:38:33;;;;;;;1.23;1.00;;;;;;;10.76;91.17;101628.22;4975202;28;20150;-87
2022/10/08 03:40:58;;;;;;;0.93;0.90;;;;;;;10.75;90.72;101628.25;4974118;28;20031;-88
2022/10/08 03:43:30;;;;;;;1.53;0.77;;;;;;;10.74;90.73;101631.72;4974994;28;20019;-88
2022/10/08 03:45:55;;;;;;;0.70;0.70;;;;;;;10.73;90.75;101638.66;4974434;28;20101;-88
2022/10/08 03:48:22;;;;;;;1.07;0.70;;;;;;;10.71;91.63;101640.38;4973864;28;20030;-87
2022/10/08 03:50:56;;;;;;;0.80;0.60;;;;;;;10.68;90.69;101647.31;4974933;28;20031;-88
2022/10/08 03:53:22;;;;;;;1.20;1.00;;;;;;;10.65;92.13;101640.38;4973763;28;20031;-87
2022/10/08 03:55:47;;;;;;;3.47;1.20;;;;;;;10.61;90.93;101636.94;4974487;28;20029;-88
2022/10/08 03:58:13;;;;;;;1.23;0.93;;;;;;;10.58;91.06;101636.97;4974069;28;20019;-87
2022/10/08 04:00:39;;;;;;;1.57;1.00;;;;;;;10.54;90.95;101643.03;4973791;28;20582;-87
2022/10/08 04:03:04;;;;;;;2.03;1.17;;;;;;;10.49;92.50;101642.16;4974429;28;20027;-88
2022/10/08 04:05:30;;;;;;;1.60;1.20;;;;;;;10.44;92.40;101642.16;4974471;28;20029;-87
2022/10/08 04:07:55;;;;;;;1.83;1.10;;;;;;;10.42;92.08;101646.50;4973665;28;20018;-87
2022/10/08 04:10:20;;;;;;;0.80;0.80;;;;;;;10.38;92.33;101649.97;4974248;28;20034;-87
2022/10/08 04:12:45;;;;;;;1.00;0.90;;;;;;;10.38;90.77;101652.56;4974629;28;20027;-87
2022/10/08 04:15:11;;;;;;;2.07;1.10;;;;;;;10.35;93.22;101661.19;4973479;28;20040;-87
2022/10/08 04:17:36;;;;;;;3.50;1.50;;;;;;;10.32;93.32;101661.19;4974305;28;20037;-87
2022/10/08 04:20:01;;;;;;;2.53;1.60;;;;;;;10.33;94.24;101647.34;4973980;28;20392;-88
2022/10/08 04:22:26;;;;;;;2.93;1.17;;;;;;;10.33;94.64;101649.94;4973683;28;20110;-88
2022/10/08 04:24:52;;;;;;;3.03;1.17;;;;;;;10.34;93.36;101663.78;4973838;28;20074;-87
2022/10/08 04:27:17;;;;;;;3.37;2.03;;;;;;;10.36;95.70;101659.44;4974290;28;20034;-88
2022/10/08 04:29:42;;;;;;;1.83;1.70;;;;;;;10.38;93.65;101667.25;4974093;28;20435;-87
2022/10/08 04:32:07;;;;;;;3.30;2.17;;;;;;;10.39;94.81;101656.88;4973768;28;20023;-87
2022/10/08 04:34:33;;;;;;;1.80;1.70;;;;;;;10.41;94.04;101659.47;4974290;28;20495;-87
2022/10/08 04:36:58;;;;;;;2.80;1.80;;;;;;;10.44;94.44;101659.47;4973654;28;20126;-87
2022/10/08 04:39:23;;;;;;;1.93;1.80;;;;;;;10.47;94.16;101665.53;4963278;28;20041;-87
2022/10/08 04:41:49;;;;;;;2.50;2.00;;;;;;;10.49;94.22;101668.09;4954813;28;20043;-88
2022/10/08 04:44:14;;;;;;;4.30;2.50;;;;;;;10.52;94.70;101677.63;4954562;28;20372;-88
2022/10/08 04:46:39;;;;;;;5.73;3.40;;;;;;;10.54;96.38;101671.56;4973818;28;20054;-89
2022/10/08 04:49:05;;;;;;;6.97;3.83;;;;;;;10.54;95.08;101671.56;4973890;28;20046;-88
2022/10/08 04:51:30;;;;;;;5.37;3.67;;;;;;;10.57;95.74;101684.56;4973621;28;20033;-88
2022/10/08 04:53:57;;;;;;;5.07;3.30;;;;;;;10.59;96.29;101682.78;4974132;28;20460;-88
2022/10/08 04:56:24;;;;;;;6.40;3.60;;;;;;;10.60;95.66;101689.72;4974201;28;20030;-88
2022/10/08 04:58:50;;;;;;;8.77;4.93;;;;;;;10.61;97.56;101691.44;4973185;28;20081;-87
2022/10/08 05:01:20;;;;;;;8.60;4.80;;;;;;;10.64;96.47;101706.13;4974329;28;20146;-87
2022/10/08 05:03:48;;;;;;;14.02;6.32;;;;;;;10.63;97.58;101701.84;4977979;28;20026;-89
2022/10/08 05:06:15;;;;;;;12.93;6.90;;;;;;;10.65;97.77;101700.97;4977623;28;20090;-88
2022/10/08 05:08:42;;;;;;;12.75;6.40;;;;;;;10.66;96.36;101707.88;4977264;28;20023;-88
2022/10/08 05:11:07;;;;;;;11.40;5.75;;;;;;;10.68;96.69;101705.28;4976954;28;20475;-88
2022/10/08 05:13:33;;;;;;;12.63;5.70;;;;;;;10.68;97.21;101709.63;4977657;28;20037;-88
2022/10/08 05:16:03;;;;;;;18.27;9.00;;;;;;;10.68;99.11;101715.66;4977319;28;20549;-88
2022/10/08 05:18:28;;;;;;;16.25;7.85;;;;;;;10.68;97.67;101709.63;4977125;28;20031;-88
2022/10/08 05:20:53;;;;;;;16.63;8.33;;;;;;;10.69;98.15;101709.59;4977482;28;20031;-87
2022/10/08 05:23:18;;;;;;;17.07;8.40;;;;;;;10.66;97.92;101710.50;4977083;28;20029;-87
2022/10/08 05:25:44;;;;;;;19.40;9.87;;;;;;;10.65;99.30;101715.66;4976750;28;20027;-88
2022/10/08 05:28:09;;;;;;;18.73;9.37;;;;;;;10.63;98.15;101718.28;4977048;28;20061;-87
2022/10/08 05:30:34;;;;;;;19.10;9.57;;;;;;;10.64;99.11;101730.38;4977378;28;20166;-88
2022/10/08 05:33:00;;;;;;;17.37;8.73;;;;;;;10.63;97.65;101717.41;4976450;28;20022;-88
2022/10/08 05:35:25;;;;;;;17.60;8.50;;;;;;;10.62;97.61;101732.13;4977474;28;20022;-87
2022/10/08 05:37:50;;;;;;;18.90;9.23;;;;;;;10.61;97.60;101730.38;4976907;28;20551;-88
2022/10/08 05:40:16;;;;;;;17.60;8.67;;;;;;;10.61;97.33;101724.34;4976941;28;20031;-88
2022/10/08 05:42:41;;;;;;;17.20;8.63;;;;;;;10.59;97.48;101728.66;4977280;28;20026;-88
2022/10/08 05:45:07;;;;;;;17.57;9.07;;;;;;;10.60;97.67;101738.19;4976742;28;20027;-88
2022/10/08 05:47:32;;;;;;;20.47;10.30;;;;;;;10.58;98.17;101734.72;4976801;28;20054;-88
2022/10/08 05:49:57;;;;;;;17.63;8.47;;;;;;;10.59;97.07;101736.44;4976772;28;20117;-88
2022/10/08 05:52:22;;;;;;;16.87;7.73;;;;;;;10.60;97.68;101748.56;4976620;28;20023;-88
2022/10/08 05:54:48;;;;;;;17.87;8.17;;;;;;;10.58;98.18;101751.19;4976506;28;20487;-88
2022/10/08 05:57:13;;;;;;;18.23;8.93;;;;;;;10.58;98.65;101752.88;4976569;28;20069;-89
2022/10/08 05:59:38;;;;;;;20.13;10.27;;;;;;;10.57;98.87;101756.34;4976270;28;20563;-89
2022/10/08 06:02:03;;;;;;;18.73;9.20;;;;;;;10.58;98.54;101761.56;4976194;28;20030;-87
2022/10/08 06:04:29;;;;;;;17.30;8.50;;;;;;;10.57;97.55;101761.53;4976538;28;20037;-88
2022/10/08 06:06:54;;;;;;;20.60;10.10;;;;;;;10.58;98.65;101766.75;4975676;28;20412;-87
2022/10/08 06:09:20;;;;;;;17.80;8.63;;;;;;;10.58;97.81;101764.16;4976760;28;20125;-88
2022/10/08 06:11:47;;;;;;;17.23;8.47;;;;;;;10.58;98.37;101769.34;4976357;28;20060;-87
2022/10/08 06:14:15;;;;;;;17.40;8.23;;;;;;;10.56;98.11;101780.56;4975629;28;20037;-88
2022/10/08 06:16:41;;;;;;;20.00;9.82;;;;;;;10.55;98.42;101779.72;4976448;28;20416;-88
2022/10/08 06:19:08;;;;;;;19.00;9.43;;;;;;;10.54;98.31;101787.50;4975807;28;20026;-86
2022/10/08 06:21:34;;;;;;;17.40;8.35;;;;;;;10.53;98.52;101784.03;4975259;28;20038;-86
2022/10/08 06:24:02;;;;;;;22.10;11.13;;;;;;;10.52;99.17;101792.69;4975718;28;20031;-86
2022/10/08 06:26:31;;;;;;;20.65;11.15;;;;;;;10.50;99.63;101787.50;4976097;28;20031;-86
2022/10/08 06:28:56;;;;;;;21.10;11.30;;;;;;;10.49;98.83;101792.69;4975200;28;20082;-86
2022/10/08 06:31:22;;;;;;;22.07;11.40;;;;;;;10.51;99.36;101796.16;4975920;28;20475;-86
2022/10/08 06:33:47;;;;;;;19.67;9.63;;;;;;;10.54;98.37;101805.66;4975822;28;20038;-86
2022/10/08 06:36:22;;;;;;;19.93;9.57;;;;;;;10.55;98.74;101805.69;4974716;28;20090;-86
2022/10/08 06:38:58;;;;;;;19.23;9.05;;;;;;;10.55;98.47;101813.47;4975605;28;20057;-86
2022/10/08 06:41:24;;;;;;;17.92;8.65;;;;;;;10.57;98.47;101819.53;4975473;28;20031;-86
2022/10/08 06:43:50;;;;;;;20.42;10.15;;;;;;;10.58;98.96;101826.44;4974677;28;20035;-83
2022/10/08 06:46:17;;;;;;;19.63;9.07;;;;;;;10.60;98.40;101829.88;4975581;28;20476;-83
2022/10/08 06:48:42;;;;;;;17.70;7.95;;;;;;;10.62;98.09;101822.97;4975288;28;20026;-84
2022/10/08 06:51:12;;;;;;;16.40;7.40;;;;;;;10.66;97.20;101826.44;4974470;28;20090;-84
2022/10/08 06:53:38;;;;;;;18.70;8.18;;;;;;;10.71;98.96;101842.88;4975664;28;20030;-84
2022/10/08 06:56:06;;;;;;;19.48;9.40;;;;;;;10.73;98.97;101846.34;4975171;28;20031;-88
2022/10/08 06:58:33;;;;;;;18.90;9.05;;;;;;;10.76;98.36;101861.91;4975121;28;20057;-87
2022/10/08 07:01:01;;;;;;;16.35;7.13;;;;;;;10.80;97.30;101863.66;4975307;28;20050;-90
2022/10/08 07:03:26;;;;;;;15.52;7.40;;;;;;;10.89;98.90;101859.31;4975908;28;20023;-93
2022/10/08 07:05:51;;;;;;;17.90;8.03;;;;;;;10.92;98.27;101870.56;4975683;28;20033;-88
2022/10/08 07:08:16;;;;;;;16.37;7.30;;;;;;;10.98;97.76;101880.09;4975946;28;20361;-88
2022/10/08 07:10:42;;;;;;;17.03;7.77;;;;;;;11.05;98.31;101878.34;4975015;28;20027;-88
2022/10/08 07:13:07;;;;;;;15.43;7.23;;;;;;;11.11;98.37;101886.16;4975224;28;20027;-87
2022/10/08 07:15:32;;;;;;;16.20;6.80;;;;;;;11.18;98.04;101887.88;4975501;28;20118;-89
2022/10/08 07:17:57;;;;;;;17.63;8.20;;;;;;;11.23;98.00;101893.94;4975290;28;20080;-87
2022/10/08 07:20:23;;;;;;;17.43;7.97;;;;;;;11.28;98.10;101893.94;4974968;28;20035;-87
2022/10/08 07:22:48;;;;;;;13.33;6.60;;;;;;;11.35;97.81;101900.00;4975011;28;20026;-88
2022/10/08 07:25:13;;;;;;;16.00;7.67;;;;;;;11.38;97.88;101899.97;4974144;28;20023;-86
2022/10/08 07:27:38;;;;;;;15.60;7.33;;;;;;;11.43;97.71;101904.28;4975315;28;20024;-91
2022/10/08 07:30:04;;;;;;;14.40;6.80;;;;;;;11.43;97.84;101904.28;4974627;28;20027;-84
2022/10/08 07:32:29;;;;;;;13.13;6.33;;;;;;;11.43;97.17;101914.69;4970180;28;20030;-83
2022/10/08 07:34:55;;;;;;;13.13;5.83;;;;;;;11.47;96.90;101912.97;4966086;28;20027;-83
2022/10/08 07:37:20;;;;;;;11.07;5.27;;;;;;;11.48;96.53;101908.63;4973359;28;20689;-83
2022/10/08 07:39:45;;;;;;;8.03;4.73;;;;;;;11.51;96.63;101917.28;4973982;28;20038;-83
2022/10/08 07:42:11;;;;;;;10.27;4.90;;;;;;;11.54;96.83;101919.03;4974085;28;20033;-83
2022/10/08 07:44:36;;;;;;;12.03;5.37;;;;;;;11.55;95.88;101929.41;4965930;28;20589;-91
2022/10/08 07:47:01;;;;;;;10.10;5.00;;;;;;;11.59;96.12;101928.56;4955136;28;20027;-89
2022/10/08 07:49:26;;;;;;;9.30;4.73;;;;;;;11.64;96.26;101927.66;4954249;28;20114;-87
2022/10/08 07:51:52;;;;;;;9.63;4.43;;;;;;;11.67;96.08;101927.66;4955996;28;20461;-93
2022/10/08 07:54:18;;;;;;;7.83;4.00;;;;;;;11.72;95.69;101938.91;4957894;28;20055;-89
2022/10/08 07:56:44;;;;;;;8.18;4.35;;;;;;;11.75;95.63;101936.31;4956731;28;20034;-90
2022/10/08 07:59:13;;;;;;;8.60;4.47;;;;;;;11.77;95.67;101934.56;4955054;28;20035;-86
2022/10/08 08:01:40;;;;;;;9.05;4.60;;;;;;;11.80;95.01;101938.88;4972619;28;20046;-87
2022/10/08 08:04:07;;;;;;;8.35;4.60;;;;;;;11.82;94.90;101945.81;4973943;28;20026;-87
2022/10/08 08:06:32;;;;;;;;;;;;;;;11.88;95.03;101945.81;4974263;28;20031;-86
2022/10/08 08:08:59;;;;;;;8.57;3.80;;;;;;;11.91;94.70;101950.13;4973712;28;19914;-86
2022/10/08 08:11:25;;;;;;;6.22;3.25;;;;;;;11.96;94.18;101957.91;4974534;28;20038;-87
2022/10/08 08:13:51;;;;;;;5.40;3.37;;;;;;;12.01;93.99;101962.25;4973450;28;20027;-86
2022/10/08 08:16:19;;;;;;;11.40;3.90;;;;;;;12.04;92.04;101961.41;4974952;28;20019;-87
2022/10/08 08:18:46;;;;;;;7.05;3.20;;;;;;;12.11;93.22;101964.81;4975203;28;20383;-86
2022/10/08 08:21:18;;;;;;;4.60;2.55;;;;;;;12.17;92.82;101972.63;4974716;28;20038;-86
2022/10/08 08:23:46;;;;;;;4.38;2.53;;;;;;;12.26;92.86;101974.34;4974133;28;20023;-84
2022/10/08 08:26:23;;;;;;;4.43;2.42;;;;;;;12.34;92.16;101980.38;4974406;28;20031;-86
2022/10/08 08:28:55;;;;;;;6.32;2.92;;;;;;;12.37;91.13;101972.56;4973851;28;20483;-86
2022/10/08 08:31:25;;;;;;;5.93;2.80;;;;;;;12.42;91.31;101991.59;4974967;28;20031;-88
2022/10/08 08:33:54;;;;;;;4.72;2.60;;;;;;;12.51;91.37;101988.09;4974883;28;20043;-88
2022/10/08 08:36:24;;;;;;;4.25;2.20;;;;;;;12.56;90.11;101999.34;4975565;28;20098;-89
2022/10/08 08:38:49;;;;;;;3.25;2.05;;;;;;;12.65;90.71;101998.44;4977510;28;20368;-87
2022/10/08 08:41:36;;;;;;;4.90;1.90;;;;;;;12.75;90.65;101994.06;4977981;28;20081;-87
2022/10/08 08:44:09;;;;;;;3.85;2.10;;;;;;;12.86;88.89;102004.38;4978021;28;20030;-85
2022/10/08 08:46:39;;;;;;;3.83;2.00;;;;;;;12.94;86.73;102005.22;4978163;28;20027;-88
2022/10/08 08:49:15;;;;;;;3.75;1.80;;;;;;;13.03;88.41;102002.56;4977329;28;20023;-87
2022/10/08 08:51:40;;;;;;;1.77;1.55;;;;;;;13.13;88.18;102017.25;4978177;28;20035;-86
2022/10/08 08:54:05;;;;;;;3.00;1.63;;;;;;;13.24;87.75;102011.94;4977767;28;20526;-86
2022/10/08 08:56:32;;;;;;;1.50;1.40;;;;;;;13.33;86.48;102011.00;4977954;28;20077;-86
2022/10/08 08:59:03;;;;;;;4.32;1.83;;;;;;;13.36;83.46;102013.59;4977825;28;20085;-86
2022/10/08 09:01:35;;;;;;;2.45;1.45;;;;;;;13.40;85.35;102015.31;4978049;28;20062;-85
2022/10/08 09:04:16;;;;;;;2.13;1.35;;;;;;;13.46;83.71;102018.75;4976438;28;20027;-86
2022/10/08 09:06:43;;;;;;;3.88;1.45;;;;;;;13.47;82.59;102016.13;4959047;28;20379;-92
2022/10/08 09:09:24;;;;;;;2.08;1.20;;;;;;;13.58;83.14;102018.66;4958355;29;20024;-86
2022/10/08 09:11:50;;;;;;;3.53;1.45;;;;;;;13.65;81.74;102022.94;4957210;29;20066;-84
2022/10/08 09:14:41;;;;;;;2.50;1.50;;;;;;;13.72;79.87;102032.44;4958659;29;20068;-84
2022/10/08 09:17:14;;;;;;;2.78;1.20;;;;;;;13.80;80.45;102034.97;4956219;29;20159;-85
2022/10/08 09:19:40;;;;;;;2.65;1.30;;;;;;;13.84;80.00;102034.06;4958018;29;20031;-86
2022/10/08 09:22:15;;;;;;;1.47;1.00;;;;;;;13.93;79.12;102043.56;4969851;28;20384;-86
2022/10/08 09:24:40;;;;;;;4.30;1.40;;;;;;;14.05;77.83;102038.19;4976854;28;20069;-86
2022/10/08 09:27:13;;;;;;;3.77;1.20;;;;;;;14.05;79.70;102051.25;4976986;28;20027;-86
2022/10/08 09:29:38;;;;;;;2.10;1.02;;;;;;;14.14;80.40;102044.19;4977325;28;20030;-86
2022/10/08 09:32:04;;;;;;;2.13;1.10;;;;;;;14.32;78.30;102046.59;4976472;28;20106;-86
2022/10/08 09:34:36;;;;;;;2.20;1.10;;;;;;;14.46;78.73;102056.00;4977047;28;20165;-86
2022/10/08 09:37:04;;;;;;;1.75;1.10;;;;;;;14.56;79.90;102062.84;4976988;28;20034;-88
2022/10/08 09:39:33;;;;;;;5.68;1.23;;;;;;;14.61;76.23;102074.13;4976266;28;20027;-85
2022/10/08 09:42:17;;;;;;;2.53;1.10;;;;;;;14.44;72.77;102063.88;4976558;28;20038;-86
2022/10/08 09:44:44;;;;;;;3.22;1.20;;;;;;;14.32;74.61;102066.63;4977254;28;20037;-85
2022/10/08 09:47:11;;;;;;;;;;;;;;;14.20;76.12;102078.94;4975966;28;20038;-86
2022/10/08 09:49:39;;;;;;;2.03;1.15;;;;;;;14.14;74.24;102078.13;4976530;28;19914;-87
2022/10/08 09:52:27;;;;;;;5.03;1.60;;;;;;;14.16;75.37;102092.03;4975502;28;20038;-86
2022/10/08 09:55:02;;;;;;;3.83;1.40;;;;;;;14.27;74.05;102084.09;4976253;28;20042;-86
2022/10/08 09:57:28;;;;;;;2.22;1.08;;;;;;;14.29;74.94;102090.16;4976074;28;20495;-86
2022/10/08 09:59:58;;;;;;;;;;;;;;;14.25;74.30;102093.66;4975608;28;20215;-86
2022/10/08 10:02:30;;;;;;;2.55;1.45;;;;;;;14.21;75.43;102096.34;4976499;28;20303;-86
2022/10/08 10:04:57;;;;;;;2.92;1.10;;;;;;;14.21;71.15;102095.44;4976355;28;20033;-87
2022/10/08 10:07:23;;;;;;;2.53;1.00;;;;;;;14.19;74.73;102097.22;4975479;28;20474;-86
2022/10/08 10:09:53;;;;;;;1.00;0.90;;;;;;;14.18;76.15;102098.13;4976372;28;20022;-85
2022/10/08 10:12:24;;;;;;;1.63;0.90;;;;;;;14.22;75.85;102105.03;4976377;28;20395;-85
2022/10/08 10:15:00;;;;;;;2.03;1.05;;;;;;;14.36;71.98;102102.25;4975460;28;20438;-84
2022/10/08 10:17:44;;;;;;;;;;;;;;;14.46;72.68;102098.69;4976633;28;20031;-84
2022/10/08 10:20:27;;;;;;;3.85;1.13;;;;;;;14.58;70.76;102096.81;4975041;28;19973;-84
2022/10/08 10:23:05;;;;;;;2.85;1.17;;;;;;;14.72;68.13;102104.50;4975673;28;20419;-86
2022/10/08 10:25:37;;;;;;;3.05;1.00;;;;;;;14.82;70.22;102106.97;4975644;28;20027;-86
2022/10/08 10:28:07;;;;;;;3.28;1.00;;;;;;;14.91;68.74;102115.59;4974831;28;20026;-86
2022/10/08 10:31:02;;;;;;;3.60;1.08;;;;;;;14.88;68.35;102110.41;4976150;28;20031;-87
2022/10/08 10:33:32;;;;;;;3.10;1.10;;;;;;;14.95;68.27;102114.66;4975915;28;20026;-85
2022/10/08 10:36:03;;;;;;;2.80;1.00;;;;;;;15.03;65.45;102114.56;4974291;28;20463;-84
2022/10/08 10:38:32;;;;;;;3.53;0.98;;;;;;;14.98;66.54;102117.22;4975756;28;20035;-86
2022/10/08 10:41:02;;;;;;;2.70;0.88;;;;;;;14.94;67.68;102120.75;4975507;28;20411;-86
2022/10/08 10:43:47;;;;;;;2.35;0.70;;;;;;;15.04;67.59;102119.75;4974938;28;20073;-86
2022/10/08 10:46:23;;;;;;;3.40;1.10;;;;;;;15.17;67.10;102124.81;4975544;28;20046;-86
2022/10/08 10:48:49;;;;;;;;;;;;;;;15.26;66.75;102120.31;4975125;28;20084;-86
2022/10/08 10:51:55;;;;;;;3.38;1.05;;;;;;;15.38;66.21;102116.66;4975265;28;20008;-87
2022/10/08 10:54:39;;;;;;;3.05;0.90;;;;;;;15.48;62.42;102127.00;4975570;28;20050;-87
2022/10/08 10:57:11;;;;;;;5.00;1.30;;;;;;;15.33;61.76;102128.06;4974492;28;20474;-87
2022/10/08 11:00:03;;;;;;;2.58;1.13;;;;;;;15.16;62.50;102130.91;4973951;28;20068;-86
2022/10/08 11:02:45;;;;;;;1.83;0.90;;;;;;;14.93;62.77;102129.47;4974653;28;20785;-87
2022/10/08 11:05:22;;;;;;;1.30;0.80;;;;;;;14.85;64.74;102133.94;4974838;28;20027;-87
2022/10/08 11:08:16;;;;;;;1.60;0.60;;;;;;;14.97;65.63;102131.19;4975333;28;20030;-87
2022/10/08 11:11:03;;;;;;;1.48;0.82;;;;;;;15.12;66.41;102132.72;4974560;28;20502;-88
2022/10/08 11:13:40;;;;;;;1.70;0.88;;;;;;;15.20;61.27;102124.78;4975130;28;20030;-87
2022/10/08 11:16:28;;;;;;;2.38;0.73;;;;;;;15.24;62.03;102129.09;4974875;28;20035;-87
2022/10/08 11:18:57;;;;;;;2.03;0.95;;;;;;;15.32;61.61;102132.44;4976220;28;20046;-86
2022/10/08 11:21:59;;;;;;;1.08;0.85;;;;;;;15.40;61.50;102135.81;4976427;28;20030;-87
2022/10/08 11:24:54;;;;;;;2.70;0.80;;;;;;;15.42;57.16;102128.81;4974330;28;20483;-87
2022/10/08 11:27:52;;;;;;;2.45;1.15;;;;;;;15.36;60.41;102141.09;4974949;28;20034;-87
2022/10/08 11:30:23;;;;;;;2.13;1.00;;;;;;;15.21;61.79;102137.81;4974582;28;20041;-86
2022/10/08 11:32:51;;;;;;;1.90;0.95;;;;;;;15.15;62.36;102145.75;4974887;28;20180;-86
2022/10/08 11:35:30;;;;;;;1.02;0.90;;;;;;;15.12;62.97;102138.84;4974799;28;20023;-87
2022/10/08 11:38:16;;;;;;;3.35;1.20;;;;;;;15.12;63.10;102138.84;4973981;28;20061;-88
2022/10/08 11:40:48;;;;;;;1.40;1.00;;;;;;;15.12;64.27;102148.41;4974870;28;20047;-87